Kezdőlap
METAR-TAF:

METAR-TAF

Repülőterek :

Iki, Japán

földrajzi szélesség: 33-45N, földrajzi hosszúság: 129-47E, magasság: 13 m

Jelenlegi meteorológiai megfigyelések

A jelentés 55 perccel ezelõtt készült, 23:10 UTC
Délnyugati szél 9 kt, dél-délnyugati és nyugat-északnyugati között változik
Hőmérséklet 21°C
Páratartalom 100%
Légköri nyomás 1004 hPa
Látótávolság: 1300 m
Borult 100 lábon
Párásság

METAR: RJDB 262310Z AUTO 23009KT 200V290 1300 BR OVC001 21/21 Q1004 RMK A2965

Idő: 09:05 (00:05 UTC)


TAF: hiányzik

Meteorológiai megfigyelések és előrejelzések több, mint 4000 repülőtéren (METAR és TAF jelentéseket).

A térképen piros és sárga pontok jelzik az elérhető meteorológiai állomásokat.

Mozgassa az egeret a pont fölött, hogy megjelenjen az állomás neve.

Azután kattintson az időjárási megfigyelések és előrejelzések megtekintéséhez.

A térkép megváltoztatása: kattintson a fekete keresztel jelölt zöld gombra ráközelítéshez, a vonallal jelölt zöld gombra távolításhoz, vagy a zöld nyilakra a szomszédos térképek eléréséhez.


METAR-TAF: